sensor_id;sensor_type;location;lat;lon;timestamp;P1;durP1;ratioP1;P2;durP2;ratioP2
57746;SDS011;43580;44.014;20.466;2022-08-19T00:01:43;9.52;;;7.05;;
57746;SDS011;43580;44.014;20.466;2022-08-19T00:04:11;11.27;;;6.60;;
57746;SDS011;43580;44.014;20.466;2022-08-19T00:06:37;11.68;;;6.88;;
57746;SDS011;43580;44.014;20.466;2022-08-19T00:09:05;12.27;;;7.53;;
57746;SDS011;43580;44.014;20.466;2022-08-19T00:11:31;13.90;;;7.15;;
57746;SDS011;43580;44.014;20.466;2022-08-19T00:13:58;10.15;;;7.15;;
57746;SDS011;43580;44.014;20.466;2022-08-19T00:16:24;10.75;;;7.03;;
57746;SDS011;43580;44.014;20.466;2022-08-19T00:18:50;13.98;;;7.25;;
57746;SDS011;43580;44.014;20.466;2022-08-19T00:21:16;11.55;;;7.53;;
57746;SDS011;43580;44.014;20.466;2022-08-19T00:23:42;13.07;;;7.90;;
57746;SDS011;43580;44.014;20.466;2022-08-19T00:26:09;12.70;;;7.32;;
57746;SDS011;43580;44.014;20.466;2022-08-19T00:28:35;12.57;;;7.53;;
57746;SDS011;43580;44.014;20.466;2022-08-19T00:31:02;12.45;;;7.65;;
57746;SDS011;43580;44.014;20.466;2022-08-19T00:33:29;11.15;;;7.90;;
57746;SDS011;43580;44.014;20.466;2022-08-19T00:35:59;12.27;;;7.03;;
57746;SDS011;43580;44.014;20.466;2022-08-19T00:38:25;12.02;;;7.97;;
57746;SDS011;43580;44.014;20.466;2022-08-19T00:40:54;14.52;;;8.57;;
57746;SDS011;43580;44.014;20.466;2022-08-19T00:43:21;11.82;;;7.55;;
57746;SDS011;43580;44.014;20.466;2022-08-19T00:45:48;11.10;;;7.80;;
57746;SDS011;43580;44.014;20.466;2022-08-19T00:48:15;10.88;;;8.18;;
57746;SDS011;43580;44.014;20.466;2022-08-19T00:50:41;12.93;;;8.73;;
57746;SDS011;43580;44.014;20.466;2022-08-19T00:53:12;10.85;;;8.02;;
57746;SDS011;43580;44.014;20.466;2022-08-19T00:55:40;12.57;;;8.10;;
57746;SDS011;43580;44.014;20.466;2022-08-19T00:58:09;10.27;;;7.75;;
57746;SDS011;43580;44.014;20.466;2022-08-19T01:00:37;12.07;;;8.55;;
57746;SDS011;43580;44.014;20.466;2022-08-19T01:03:08;10.82;;;8.00;;
57746;SDS011;43580;44.014;20.466;2022-08-19T01:05:34;11.38;;;7.65;;
57746;SDS011;43580;44.014;20.466;2022-08-19T01:08:04;13.13;;;8.13;;
57746;SDS011;43580;44.014;20.466;2022-08-19T01:10:33;9.75;;;7.85;;
57746;SDS011;43580;44.014;20.466;2022-08-19T01:13:00;13.57;;;8.63;;
57746;SDS011;43580;44.014;20.466;2022-08-19T01:15:33;12.95;;;9.00;;
57746;SDS011;43580;44.014;20.466;2022-08-19T01:18:01;13.60;;;8.60;;
57746;SDS011;43580;44.014;20.466;2022-08-19T01:20:32;15.25;;;8.10;;
57746;SDS011;43580;44.014;20.466;2022-08-19T01:22:59;9.70;;;8.18;;
57746;SDS011;43580;44.014;20.466;2022-08-19T01:25:27;17.77;;;8.63;;
57746;SDS011;43580;44.014;20.466;2022-08-19T01:27:53;11.23;;;7.28;;
57746;SDS011;43580;44.014;20.466;2022-08-19T01:30:25;10.57;;;7.82;;
57746;SDS011;43580;44.014;20.466;2022-08-19T01:32:52;9.85;;;7.78;;
57746;SDS011;43580;44.014;20.466;2022-08-19T01:35:18;14.18;;;8.23;;
57746;SDS011;43580;44.014;20.466;2022-08-19T01:37:47;10.90;;;8.02;;
57746;SDS011;43580;44.014;20.466;2022-08-19T01:40:17;12.30;;;8.05;;
57746;SDS011;43580;44.014;20.466;2022-08-19T01:42:45;11.60;;;8.02;;
57746;SDS011;43580;44.014;20.466;2022-08-19T01:45:12;10.38;;;8.70;;
57746;SDS011;43580;44.014;20.466;2022-08-19T01:47:39;11.73;;;8.82;;
57746;SDS011;43580;44.014;20.466;2022-08-19T01:50:06;12.27;;;9.13;;
57746;SDS011;43580;44.014;20.466;2022-08-19T01:52:36;13.65;;;9.15;;
57746;SDS011;43580;44.014;20.466;2022-08-19T01:55:02;13.20;;;9.07;;
57746;SDS011;43580;44.014;20.466;2022-08-19T01:57:29;14.75;;;9.38;;
57746;SDS011;43580;44.014;20.466;2022-08-19T01:59:55;12.82;;;9.50;;
57746;SDS011;43580;44.014;20.466;2022-08-19T02:02:21;10.93;;;9.15;;
57746;SDS011;43580;44.014;20.466;2022-08-19T02:04:48;10.77;;;8.30;;
57746;SDS011;43580;44.014;20.466;2022-08-19T02:07:15;11.00;;;8.32;;
57746;SDS011;43580;44.014;20.466;2022-08-19T02:09:41;12.07;;;8.18;;
57746;SDS011;43580;44.014;20.466;2022-08-19T02:12:07;12.85;;;9.07;;
57746;SDS011;43580;44.014;20.466;2022-08-19T02:14:34;11.98;;;8.35;;
57746;SDS011;43580;44.014;20.466;2022-08-19T02:17:00;14.07;;;8.73;;
57746;SDS011;43580;44.014;20.466;2022-08-19T02:19:26;11.82;;;8.85;;
57746;SDS011;43580;44.014;20.466;2022-08-19T02:21:57;12.43;;;9.07;;
57746;SDS011;43580;44.014;20.466;2022-08-19T02:24:23;11.95;;;9.30;;
57746;SDS011;43580;44.014;20.466;2022-08-19T02:26:50;11.13;;;8.30;;
57746;SDS011;43580;44.014;20.466;2022-08-19T02:29:16;10.82;;;9.30;;
57746;SDS011;43580;44.014;20.466;2022-08-19T02:31:42;11.27;;;8.70;;
57746;SDS011;43580;44.014;20.466;2022-08-19T02:34:08;14.93;;;9.68;;
57746;SDS011;43580;44.014;20.466;2022-08-19T02:36:34;14.10;;;9.60;;
57746;SDS011;43580;44.014;20.466;2022-08-19T02:39:00;12.70;;;9.07;;
57746;SDS011;43580;44.014;20.466;2022-08-19T02:41:30;11.93;;;8.50;;
57746;SDS011;43580;44.014;20.466;2022-08-19T02:43:57;11.15;;;8.07;;
57746;SDS011;43580;44.014;20.466;2022-08-19T02:46:25;11.23;;;8.25;;
57746;SDS011;43580;44.014;20.466;2022-08-19T02:48:52;10.98;;;8.85;;
57746;SDS011;43580;44.014;20.466;2022-08-19T02:51:19;10.32;;;9.23;;
57746;SDS011;43580;44.014;20.466;2022-08-19T02:53:46;10.75;;;9.65;;
57746;SDS011;43580;44.014;20.466;2022-08-19T02:56:12;13.30;;;9.32;;
57746;SDS011;43580;44.014;20.466;2022-08-19T02:58:41;11.93;;;8.40;;
57746;SDS011;43580;44.014;20.466;2022-08-19T03:01:08;11.77;;;8.25;;
57746;SDS011;43580;44.014;20.466;2022-08-19T03:03:35;11.75;;;8.15;;
57746;SDS011;43580;44.014;20.466;2022-08-19T03:06:05;10.13;;;7.40;;
57746;SDS011;43580;44.014;20.466;2022-08-19T03:08:31;13.23;;;8.20;;
57746;SDS011;43580;44.014;20.466;2022-08-19T03:10:57;15.60;;;8.38;;
57746;SDS011;43580;44.014;20.466;2022-08-19T03:13:24;14.30;;;8.10;;
57746;SDS011;43580;44.014;20.466;2022-08-19T03:15:50;12.43;;;8.07;;
57746;SDS011;43580;44.014;20.466;2022-08-19T03:18:16;10.45;;;7.97;;
57746;SDS011;43580;44.014;20.466;2022-08-19T03:20:43;12.80;;;8.05;;
57746;SDS011;43580;44.014;20.466;2022-08-19T03:23:10;12.25;;;8.57;;
57746;SDS011;43580;44.014;20.466;2022-08-19T03:25:42;10.88;;;8.68;;
57746;SDS011;43580;44.014;20.466;2022-08-19T03:28:12;16.08;;;8.75;;
57746;SDS011;43580;44.014;20.466;2022-08-19T03:30:39;14.10;;;9.02;;
57746;SDS011;43580;44.014;20.466;2022-08-19T03:33:06;13.13;;;9.48;;
57746;SDS011;43580;44.014;20.466;2022-08-19T03:35:32;10.85;;;8.82;;
57746;SDS011;43580;44.014;20.466;2022-08-19T03:38:01;12.75;;;9.50;;
57746;SDS011;43580;44.014;20.466;2022-08-19T03:40:27;15.75;;;9.70;;
57746;SDS011;43580;44.014;20.466;2022-08-19T03:42:55;14.52;;;9.40;;
57746;SDS011;43580;44.014;20.466;2022-08-19T03:45:21;15.77;;;9.15;;
57746;SDS011;43580;44.014;20.466;2022-08-19T03:47:47;15.60;;;8.90;;
57746;SDS011;43580;44.014;20.466;2022-08-19T03:50:13;12.73;;;8.70;;
57746;SDS011;43580;44.014;20.466;2022-08-19T03:52:39;13.70;;;8.50;;
57746;SDS011;43580;44.014;20.466;2022-08-19T03:55:06;13.65;;;9.73;;
57746;SDS011;43580;44.014;20.466;2022-08-19T03:57:32;12.32;;;9.50;;
57746;SDS011;43580;44.014;20.466;2022-08-19T03:59:59;13.50;;;8.73;;
57746;SDS011;43580;44.014;20.466;2022-08-19T04:02:26;13.10;;;8.82;;
57746;SDS011;43580;44.014;20.466;2022-08-19T04:04:53;13.70;;;8.70;;
57746;SDS011;43580;44.014;20.466;2022-08-19T04:07:20;13.05;;;8.82;;
57746;SDS011;43580;44.014;20.466;2022-08-19T04:09:46;12.93;;;8.20;;
57746;SDS011;43580;44.014;20.466;2022-08-19T04:12:13;12.48;;;8.95;;
57746;SDS011;43580;44.014;20.466;2022-08-19T04:14:39;13.35;;;9.55;;
57746;SDS011;43580;44.014;20.466;2022-08-19T04:17:06;10.85;;;9.30;;
57746;SDS011;43580;44.014;20.466;2022-08-19T04:19:36;12.20;;;8.55;;
57746;SDS011;43580;44.014;20.466;2022-08-19T04:22:05;11.07;;;8.43;;
57746;SDS011;43580;44.014;20.466;2022-08-19T04:24:34;12.20;;;8.40;;
57746;SDS011;43580;44.014;20.466;2022-08-19T04:27:01;12.98;;;7.95;;
57746;SDS011;43580;44.014;20.466;2022-08-19T04:29:27;12.95;;;8.25;;
57746;SDS011;43580;44.014;20.466;2022-08-19T04:31:55;12.18;;;8.35;;
57746;SDS011;43580;44.014;20.466;2022-08-19T04:34:23;12.73;;;8.60;;
57746;SDS011;43580;44.014;20.466;2022-08-19T04:36:49;12.27;;;8.77;;
57746;SDS011;43580;44.014;20.466;2022-08-19T04:39:17;13.70;;;8.65;;
57746;SDS011;43580;44.014;20.466;2022-08-19T04:41:43;12.45;;;8.63;;
57746;SDS011;43580;44.014;20.466;2022-08-19T04:44:31;11.43;;;8.73;;
57746;SDS011;43580;44.014;20.466;2022-08-19T04:46:58;9.50;;;8.30;;
57746;SDS011;43580;44.014;20.466;2022-08-19T04:49:24;12.15;;;8.88;;
57746;SDS011;43580;44.014;20.466;2022-08-19T04:51:51;10.63;;;8.85;;
57746;SDS011;43580;44.014;20.466;2022-08-19T04:54:18;11.63;;;8.93;;
57746;SDS011;43580;44.014;20.466;2022-08-19T04:56:47;12.35;;;9.05;;
57746;SDS011;43580;44.014;20.466;2022-08-19T04:59:14;11.85;;;9.40;;
57746;SDS011;43580;44.014;20.466;2022-08-19T05:01:42;15.70;;;9.63;;
57746;SDS011;43580;44.014;20.466;2022-08-19T05:04:08;17.58;;;9.25;;
57746;SDS011;43580;44.014;20.466;2022-08-19T05:06:35;12.82;;;8.73;;
57746;SDS011;43580;44.014;20.466;2022-08-19T05:09:02;14.32;;;9.57;;
57746;SDS011;43580;44.014;20.466;2022-08-19T05:11:30;18.70;;;9.65;;
57746;SDS011;43580;44.014;20.466;2022-08-19T05:13:56;18.30;;;9.43;;
57746;SDS011;43580;44.014;20.466;2022-08-19T05:16:23;16.95;;;9.27;;
57746;SDS011;43580;44.014;20.466;2022-08-19T05:18:50;13.93;;;9.80;;
57746;SDS011;43580;44.014;20.466;2022-08-19T05:21:35;12.82;;;9.82;;
57746;SDS011;43580;44.014;20.466;2022-08-19T05:24:20;15.13;;;10.50;;
57746;SDS011;43580;44.014;20.466;2022-08-19T05:26:48;15.63;;;11.10;;
57746;SDS011;43580;44.014;20.466;2022-08-19T05:29:15;18.05;;;11.05;;
57746;SDS011;43580;44.014;20.466;2022-08-19T05:31:41;19.75;;;9.52;;
57746;SDS011;43580;44.014;20.466;2022-08-19T05:34:08;18.90;;;12.25;;
57746;SDS011;43580;44.014;20.466;2022-08-19T05:36:38;20.13;;;11.25;;
57746;SDS011;43580;44.014;20.466;2022-08-19T05:39:07;13.35;;;10.05;;
57746;SDS011;43580;44.014;20.466;2022-08-19T05:41:35;20.65;;;10.10;;
57746;SDS011;43580;44.014;20.466;2022-08-19T05:44:03;14.23;;;10.30;;
57746;SDS011;43580;44.014;20.466;2022-08-19T05:46:31;20.52;;;10.80;;
57746;SDS011;43580;44.014;20.466;2022-08-19T05:48:57;18.90;;;10.85;;
57746;SDS011;43580;44.014;20.466;2022-08-19T05:51:24;13.68;;;9.98;;
57746;SDS011;43580;44.014;20.466;2022-08-19T05:53:50;14.85;;;9.00;;
57746;SDS011;43580;44.014;20.466;2022-08-19T05:56:17;16.95;;;9.15;;
57746;SDS011;43580;44.014;20.466;2022-08-19T05:58:44;14.18;;;8.70;;
57746;SDS011;43580;44.014;20.466;2022-08-19T06:01:11;15.45;;;8.32;;
57746;SDS011;43580;44.014;20.466;2022-08-19T06:03:43;17.25;;;8.35;;
57746;SDS011;43580;44.014;20.466;2022-08-19T06:06:10;14.00;;;8.77;;
57746;SDS011;43580;44.014;20.466;2022-08-19T06:08:37;13.88;;;9.00;;
57746;SDS011;43580;44.014;20.466;2022-08-19T06:11:20;12.77;;;8.60;;
57746;SDS011;43580;44.014;20.466;2022-08-19T06:13:48;11.32;;;8.18;;
57746;SDS011;43580;44.014;20.466;2022-08-19T06:16:18;11.35;;;8.50;;
57746;SDS011;43580;44.014;20.466;2022-08-19T06:18:45;16.42;;;8.48;;
57746;SDS011;43580;44.014;20.466;2022-08-19T06:21:11;14.40;;;8.18;;
57746;SDS011;43580;44.014;20.466;2022-08-19T06:23:38;15.10;;;9.32;;
57746;SDS011;43580;44.014;20.466;2022-08-19T06:26:04;17.40;;;8.98;;
57746;SDS011;43580;44.014;20.466;2022-08-19T06:28:30;15.32;;;8.95;;
57746;SDS011;43580;44.014;20.466;2022-08-19T06:30:58;18.52;;;8.85;;
57746;SDS011;43580;44.014;20.466;2022-08-19T06:33:26;17.90;;;9.00;;
57746;SDS011;43580;44.014;20.466;2022-08-19T06:35:52;20.63;;;9.70;;
57746;SDS011;43580;44.014;20.466;2022-08-19T06:38:18;16.50;;;9.00;;
57746;SDS011;43580;44.014;20.466;2022-08-19T06:40:47;18.83;;;8.98;;
57746;SDS011;43580;44.014;20.466;2022-08-19T06:43:13;19.90;;;10.60;;
57746;SDS011;43580;44.014;20.466;2022-08-19T06:45:44;18.95;;;10.38;;
57746;SDS011;43580;44.014;20.466;2022-08-19T06:48:10;18.48;;;9.80;;
57746;SDS011;43580;44.014;20.466;2022-08-19T06:50:36;16.10;;;8.38;;
57746;SDS011;43580;44.014;20.466;2022-08-19T06:53:02;13.38;;;7.93;;
57746;SDS011;43580;44.014;20.466;2022-08-19T06:55:28;13.27;;;8.32;;
57746;SDS011;43580;44.014;20.466;2022-08-19T06:57:55;13.57;;;7.68;;
57746;SDS011;43580;44.014;20.466;2022-08-19T07:00:21;19.02;;;11.43;;
57746;SDS011;43580;44.014;20.466;2022-08-19T07:02:47;16.20;;;8.30;;
57746;SDS011;43580;44.014;20.466;2022-08-19T07:05:14;13.98;;;7.63;;
57746;SDS011;43580;44.014;20.466;2022-08-19T07:07:40;11.82;;;7.40;;
57746;SDS011;43580;44.014;20.466;2022-08-19T07:10:08;13.35;;;7.38;;
57746;SDS011;43580;44.014;20.466;2022-08-19T07:12:34;13.20;;;6.43;;
57746;SDS011;43580;44.014;20.466;2022-08-19T07:15:04;10.77;;;6.60;;
57746;SDS011;43580;44.014;20.466;2022-08-19T07:17:31;15.13;;;6.57;;
57746;SDS011;43580;44.014;20.466;2022-08-19T07:19:57;11.23;;;6.38;;
57746;SDS011;43580;44.014;20.466;2022-08-19T07:22:24;14.40;;;6.63;;
57746;SDS011;43580;44.014;20.466;2022-08-19T07:24:50;15.75;;;6.72;;
57746;SDS011;43580;44.014;20.466;2022-08-19T07:27:17;11.90;;;6.63;;
57746;SDS011;43580;44.014;20.466;2022-08-19T07:29:46;11.75;;;6.15;;
57746;SDS011;43580;44.014;20.466;2022-08-19T07:32:12;12.75;;;6.30;;
57746;SDS011;43580;44.014;20.466;2022-08-19T07:34:41;11.77;;;6.68;;
57746;SDS011;43580;44.014;20.466;2022-08-19T07:37:07;11.18;;;6.05;;
57746;SDS011;43580;44.014;20.466;2022-08-19T07:39:36;13.18;;;6.05;;
57746;SDS011;43580;44.014;20.466;2022-08-19T07:42:05;12.27;;;6.88;;
57746;SDS011;43580;44.014;20.466;2022-08-19T07:44:32;11.93;;;6.20;;
57746;SDS011;43580;44.014;20.466;2022-08-19T07:47:00;18.63;;;6.47;;
57746;SDS011;43580;44.014;20.466;2022-08-19T07:49:27;17.23;;;6.63;;
57746;SDS011;43580;44.014;20.466;2022-08-19T07:52:01;12.45;;;7.00;;
57746;SDS011;43580;44.014;20.466;2022-08-19T07:54:30;17.65;;;6.78;;
57746;SDS011;43580;44.014;20.466;2022-08-19T07:56:56;12.38;;;6.13;;
57746;SDS011;43580;44.014;20.466;2022-08-19T07:59:23;13.38;;;5.95;;
57746;SDS011;43580;44.014;20.466;2022-08-19T08:01:49;12.05;;;6.43;;
57746;SDS011;43580;44.014;20.466;2022-08-19T08:04:17;13.65;;;6.88;;
57746;SDS011;43580;44.014;20.466;2022-08-19T08:07:04;12.73;;;7.03;;
57746;SDS011;43580;44.014;20.466;2022-08-19T08:09:51;13.20;;;6.85;;
57746;SDS011;43580;44.014;20.466;2022-08-19T08:12:29;14.30;;;7.30;;
57746;SDS011;43580;44.014;20.466;2022-08-19T08:14:56;12.93;;;6.90;;
57746;SDS011;43580;44.014;20.466;2022-08-19T08:17:24;13.77;;;7.65;;
57746;SDS011;43580;44.014;20.466;2022-08-19T08:19:50;14.35;;;6.88;;
57746;SDS011;43580;44.014;20.466;2022-08-19T08:22:18;9.75;;;6.30;;
57746;SDS011;43580;44.014;20.466;2022-08-19T08:25:04;11.90;;;6.05;;
57746;SDS011;43580;44.014;20.466;2022-08-19T08:27:33;17.42;;;5.93;;
57746;SDS011;43580;44.014;20.466;2022-08-19T08:30:02;11.93;;;6.55;;
57746;SDS011;43580;44.014;20.466;2022-08-19T08:32:29;12.32;;;6.43;;
57746;SDS011;43580;44.014;20.466;2022-08-19T08:34:55;11.98;;;6.20;;
57746;SDS011;43580;44.014;20.466;2022-08-19T08:37:24;19.00;;;6.63;;
57746;SDS011;43580;44.014;20.466;2022-08-19T08:39:50;13.30;;;6.60;;
57746;SDS011;43580;44.014;20.466;2022-08-19T08:42:21;14.43;;;6.80;;
57746;SDS011;43580;44.014;20.466;2022-08-19T08:45:11;15.68;;;6.60;;
57746;SDS011;43580;44.014;20.466;2022-08-19T08:47:40;12.52;;;6.75;;
57746;SDS011;43580;44.014;20.466;2022-08-19T08:52:34;14.30;;;6.20;;
57746;SDS011;43580;44.014;20.466;2022-08-19T08:55:09;12.95;;;6.35;;
57746;SDS011;43580;44.014;20.466;2022-08-19T08:57:49;11.63;;;6.45;;
57746;SDS011;43580;44.014;20.466;2022-08-19T09:02:49;16.25;;;5.90;;
57746;SDS011;43580;44.014;20.466;2022-08-19T09:05:15;11.60;;;6.00;;
57746;SDS011;43580;44.014;20.466;2022-08-19T09:07:58;18.80;;;6.18;;
57746;SDS011;43580;44.014;20.466;2022-08-19T09:12:59;12.70;;;5.30;;
57746;SDS011;43580;44.014;20.466;2022-08-19T09:15:29;9.52;;;5.65;;
57746;SDS011;43580;44.014;20.466;2022-08-19T09:18:01;8.93;;;4.97;;
57746;SDS011;43580;44.014;20.466;2022-08-19T09:20:28;14.35;;;5.60;;
57746;SDS011;43580;44.014;20.466;2022-08-19T09:23:01;9.77;;;5.68;;
57746;SDS011;43580;44.014;20.466;2022-08-19T09:25:27;12.48;;;5.38;;
57746;SDS011;43580;44.014;20.466;2022-08-19T09:27:54;12.50;;;5.68;;
57746;SDS011;43580;44.014;20.466;2022-08-19T09:30:25;11.43;;;5.65;;
57746;SDS011;43580;44.014;20.466;2022-08-19T09:32:51;13.18;;;5.70;;
57746;SDS011;43580;44.014;20.466;2022-08-19T09:35:21;10.27;;;5.25;;
57746;SDS011;43580;44.014;20.466;2022-08-19T09:37:48;13.25;;;6.15;;
57746;SDS011;43580;44.014;20.466;2022-08-19T09:40:17;11.80;;;5.40;;
57746;SDS011;43580;44.014;20.466;2022-08-19T09:42:43;12.27;;;5.63;;
57746;SDS011;43580;44.014;20.466;2022-08-19T09:45:12;11.15;;;5.82;;
57746;SDS011;43580;44.014;20.466;2022-08-19T09:47:38;11.57;;;5.13;;
57746;SDS011;43580;44.014;20.466;2022-08-19T09:50:05;9.55;;;4.82;;
57746;SDS011;43580;44.014;20.466;2022-08-19T09:52:32;11.25;;;5.88;;
57746;SDS011;43580;44.014;20.466;2022-08-19T09:55:01;11.60;;;4.13;;
57746;SDS011;43580;44.014;20.466;2022-08-19T09:57:28;13.80;;;5.40;;
57746;SDS011;43580;44.014;20.466;2022-08-19T09:59:54;11.25;;;6.47;;
57746;SDS011;43580;44.014;20.466;2022-08-19T10:02:20;13.70;;;5.75;;
57746;SDS011;43580;44.014;20.466;2022-08-19T10:04:46;16.83;;;10.45;;
57746;SDS011;43580;44.014;20.466;2022-08-19T10:07:30;17.50;;;9.80;;
57746;SDS011;43580;44.014;20.466;2022-08-19T10:09:57;13.07;;;5.85;;
57746;SDS011;43580;44.014;20.466;2022-08-19T10:12:23;9.95;;;4.80;;
57746;SDS011;43580;44.014;20.466;2022-08-19T10:14:49;12.52;;;5.13;;
57746;SDS011;43580;44.014;20.466;2022-08-19T10:17:18;13.77;;;5.53;;
57746;SDS011;43580;44.014;20.466;2022-08-19T10:19:47;9.50;;;4.95;;
57746;SDS011;43580;44.014;20.466;2022-08-19T10:22:13;10.38;;;4.97;;
57746;SDS011;43580;44.014;20.466;2022-08-19T10:24:40;10.95;;;5.60;;
57746;SDS011;43580;44.014;20.466;2022-08-19T10:27:06;15.20;;;5.60;;
57746;SDS011;43580;44.014;20.466;2022-08-19T10:29:32;8.23;;;4.93;;
57746;SDS011;43580;44.014;20.466;2022-08-19T10:32:03;11.48;;;5.13;;
57746;SDS011;43580;44.014;20.466;2022-08-19T10:37:00;10.95;;;4.80;;
57746;SDS011;43580;44.014;20.466;2022-08-19T10:39:26;13.77;;;5.60;;
57746;SDS011;43580;44.014;20.466;2022-08-19T10:41:54;11.50;;;5.20;;
57746;SDS011;43580;44.014;20.466;2022-08-19T10:44:21;11.73;;;5.43;;
57746;SDS011;43580;44.014;20.466;2022-08-19T10:46:48;12.80;;;5.32;;
57746;SDS011;43580;44.014;20.466;2022-08-19T10:49:18;11.60;;;5.30;;
57746;SDS011;43580;44.014;20.466;2022-08-19T10:51:44;10.65;;;5.07;;
57746;SDS011;43580;44.014;20.466;2022-08-19T10:54:29;11.65;;;4.68;;
57746;SDS011;43580;44.014;20.466;2022-08-19T10:57:14;12.25;;;5.75;;
57746;SDS011;43580;44.014;20.466;2022-08-19T10:59:40;13.82;;;5.60;;
57746;SDS011;43580;44.014;20.466;2022-08-19T11:02:07;14.13;;;5.57;;
57746;SDS011;43580;44.014;20.466;2022-08-19T11:04:37;14.43;;;5.22;;
57746;SDS011;43580;44.014;20.466;2022-08-19T11:07:04;9.45;;;5.38;;
57746;SDS011;43580;44.014;20.466;2022-08-19T11:09:30;12.13;;;5.65;;
57746;SDS011;43580;44.014;20.466;2022-08-19T11:11:57;27.58;;;6.72;;
57746;SDS011;43580;44.014;20.466;2022-08-19T11:14:23;15.63;;;5.63;;
57746;SDS011;43580;44.014;20.466;2022-08-19T11:16:50;9.63;;;5.53;;
57746;SDS011;43580;44.014;20.466;2022-08-19T11:19:21;18.95;;;5.50;;
57746;SDS011;43580;44.014;20.466;2022-08-19T11:21:50;13.55;;;5.45;;
57746;SDS011;43580;44.014;20.466;2022-08-19T11:24:18;12.27;;;5.50;;
57746;SDS011;43580;44.014;20.466;2022-08-19T11:26:45;12.40;;;5.38;;
57746;SDS011;43580;44.014;20.466;2022-08-19T11:29:14;9.77;;;5.78;;
57746;SDS011;43580;44.014;20.466;2022-08-19T11:31:42;15.10;;;6.05;;
57746;SDS011;43580;44.014;20.466;2022-08-19T11:34:10;14.13;;;5.57;;
57746;SDS011;43580;44.014;20.466;2022-08-19T11:36:37;13.10;;;6.53;;
57746;SDS011;43580;44.014;20.466;2022-08-19T11:39:05;12.57;;;5.78;;
57746;SDS011;43580;44.014;20.466;2022-08-19T11:41:34;14.05;;;5.95;;
57746;SDS011;43580;44.014;20.466;2022-08-19T11:44:00;14.40;;;5.35;;
57746;SDS011;43580;44.014;20.466;2022-08-19T11:46:27;14.48;;;4.93;;
57746;SDS011;43580;44.014;20.466;2022-08-19T11:48:54;13.50;;;5.68;;
57746;SDS011;43580;44.014;20.466;2022-08-19T11:51:22;21.10;;;6.13;;
57746;SDS011;43580;44.014;20.466;2022-08-19T11:53:49;12.48;;;5.68;;
57746;SDS011;43580;44.014;20.466;2022-08-19T11:56:15;15.10;;;5.28;;
57746;SDS011;43580;44.014;20.466;2022-08-19T11:58:44;15.20;;;5.55;;
57746;SDS011;43580;44.014;20.466;2022-08-19T12:01:12;12.48;;;5.55;;
57746;SDS011;43580;44.014;20.466;2022-08-19T12:03:40;12.63;;;5.07;;
57746;SDS011;43580;44.014;20.466;2022-08-19T12:06:10;12.95;;;5.53;;
57746;SDS011;43580;44.014;20.466;2022-08-19T12:08:41;12.65;;;5.32;;
57746;SDS011;43580;44.014;20.466;2022-08-19T12:11:08;14.65;;;5.00;;
57746;SDS011;43580;44.014;20.466;2022-08-19T12:13:35;9.95;;;5.18;;
57746;SDS011;43580;44.014;20.466;2022-08-19T12:16:06;13.23;;;5.15;;
57746;SDS011;43580;44.014;20.466;2022-08-19T12:18:33;13.38;;;5.32;;
57746;SDS011;43580;44.014;20.466;2022-08-19T12:20:59;14.82;;;5.50;;
57746;SDS011;43580;44.014;20.466;2022-08-19T12:23:26;16.08;;;5.60;;
57746;SDS011;43580;44.014;20.466;2022-08-19T12:25:52;12.00;;;5.18;;
57746;SDS011;43580;44.014;20.466;2022-08-19T12:28:19;16.55;;;4.80;;
57746;SDS011;43580;44.014;20.466;2022-08-19T12:30:46;19.83;;;5.47;;
57746;SDS011;43580;44.014;20.466;2022-08-19T12:33:13;20.33;;;5.32;;
57746;SDS011;43580;44.014;20.466;2022-08-19T12:35:42;17.08;;;5.82;;
57746;SDS011;43580;44.014;20.466;2022-08-19T12:38:11;17.67;;;5.22;;
57746;SDS011;43580;44.014;20.466;2022-08-19T12:40:37;14.55;;;5.18;;
57746;SDS011;43580;44.014;20.466;2022-08-19T12:43:05;14.55;;;5.90;;
57746;SDS011;43580;44.014;20.466;2022-08-19T12:45:31;15.77;;;5.15;;
57746;SDS011;43580;44.014;20.466;2022-08-19T12:47:59;17.08;;;5.10;;
57746;SDS011;43580;44.014;20.466;2022-08-19T12:50:26;17.13;;;5.15;;
57746;SDS011;43580;44.014;20.466;2022-08-19T12:52:52;17.40;;;4.95;;
57746;SDS011;43580;44.014;20.466;2022-08-19T12:55:18;18.15;;;4.90;;
57746;SDS011;43580;44.014;20.466;2022-08-19T12:57:44;16.58;;;5.60;;
57746;SDS011;43580;44.014;20.466;2022-08-19T13:00:13;14.65;;;5.28;;
57746;SDS011;43580;44.014;20.466;2022-08-19T13:02:40;14.05;;;5.20;;
57746;SDS011;43580;44.014;20.466;2022-08-19T13:05:07;13.82;;;5.45;;
57746;SDS011;43580;44.014;20.466;2022-08-19T13:07:34;16.00;;;5.38;;
57746;SDS011;43580;44.014;20.466;2022-08-19T13:10:02;13.55;;;5.45;;
57746;SDS011;43580;44.014;20.466;2022-08-19T13:12:28;18.17;;;5.50;;
57746;SDS011;43580;44.014;20.466;2022-08-19T13:14:54;14.68;;;5.85;;
57746;SDS011;43580;44.014;20.466;2022-08-19T13:17:23;21.75;;;5.80;;
57746;SDS011;43580;44.014;20.466;2022-08-19T13:19:49;14.38;;;5.18;;
57746;SDS011;43580;44.014;20.466;2022-08-19T13:22:15;21.80;;;5.43;;
57746;SDS011;43580;44.014;20.466;2022-08-19T13:24:42;17.92;;;5.70;;
57746;SDS011;43580;44.014;20.466;2022-08-19T13:27:08;19.88;;;6.18;;
57746;SDS011;43580;44.014;20.466;2022-08-19T13:29:34;23.55;;;8.18;;
57746;SDS011;43580;44.014;20.466;2022-08-19T13:32:19;23.25;;;8.77;;
57746;SDS011;43580;44.014;20.466;2022-08-19T13:35:06;16.58;;;5.35;;
57746;SDS011;43580;44.014;20.466;2022-08-19T13:37:32;27.70;;;8.45;;
57746;SDS011;43580;44.014;20.466;2022-08-19T13:40:08;21.92;;;7.35;;
57746;SDS011;43580;44.014;20.466;2022-08-19T13:42:40;17.33;;;6.10;;
57746;SDS011;43580;44.014;20.466;2022-08-19T13:45:06;19.10;;;6.90;;
57746;SDS011;43580;44.014;20.466;2022-08-19T13:47:33;20.23;;;6.13;;
57746;SDS011;43580;44.014;20.466;2022-08-19T13:50:12;24.70;;;7.00;;
57746;SDS011;43580;44.014;20.466;2022-08-19T13:52:39;18.27;;;6.38;;
57746;SDS011;43580;44.014;20.466;2022-08-19T13:55:05;23.83;;;6.32;;
57746;SDS011;43580;44.014;20.466;2022-08-19T13:57:34;24.13;;;6.20;;
57746;SDS011;43580;44.014;20.466;2022-08-19T14:00:05;19.65;;;5.25;;
57746;SDS011;43580;44.014;20.466;2022-08-19T14:02:33;20.80;;;5.85;;
57746;SDS011;43580;44.014;20.466;2022-08-19T14:04:59;28.42;;;5.70;;
57746;SDS011;43580;44.014;20.466;2022-08-19T14:07:25;24.27;;;5.53;;
57746;SDS011;43580;44.014;20.466;2022-08-19T14:09:51;22.98;;;5.55;;
57746;SDS011;43580;44.014;20.466;2022-08-19T14:12:20;18.40;;;5.78;;
57746;SDS011;43580;44.014;20.466;2022-08-19T14:14:46;23.33;;;6.18;;
57746;SDS011;43580;44.014;20.466;2022-08-19T14:17:12;31.67;;;7.00;;
57746;SDS011;43580;44.014;20.466;2022-08-19T14:19:39;21.55;;;6.22;;
57746;SDS011;43580;44.014;20.466;2022-08-19T14:22:05;27.10;;;6.43;;
57746;SDS011;43580;44.014;20.466;2022-08-19T14:24:31;19.35;;;6.00;;
57746;SDS011;43580;44.014;20.466;2022-08-19T14:26:58;20.67;;;6.47;;
57746;SDS011;43580;44.014;20.466;2022-08-19T14:29:24;26.15;;;6.38;;
57746;SDS011;43580;44.014;20.466;2022-08-19T14:31:50;21.73;;;5.47;;
57746;SDS011;43580;44.014;20.466;2022-08-19T14:34:16;15.10;;;5.53;;
57746;SDS011;43580;44.014;20.466;2022-08-19T14:36:42;22.33;;;6.38;;